createdAt,value
2022-09-25T00:01:40.730Z,8.67
2022-09-25T00:04:09.574Z,9.50
2022-09-25T00:06:38.248Z,8.83
2022-09-25T00:09:10.202Z,8.47
2022-09-25T00:11:39.168Z,8.70
2022-09-25T00:14:07.878Z,8.83
2022-09-25T00:16:36.607Z,7.93
2022-09-25T00:19:24.126Z,9.20
2022-09-25T00:21:53.256Z,8.20
2022-09-25T00:24:22.453Z,8.77
2022-09-25T00:26:51.314Z,8.93
2022-09-25T00:29:21.729Z,8.60
2022-09-25T00:31:50.407Z,8.63
2022-09-25T00:34:20.399Z,9.10
2022-09-25T00:36:49.025Z,8.40
2022-09-25T00:39:17.663Z,9.00
2022-09-25T00:41:46.291Z,8.97
2022-09-25T00:44:56.868Z,8.73
2022-09-25T00:47:44.204Z,8.83
2022-09-25T00:50:27.912Z,8.70
2022-09-25T00:53:04.490Z,8.47
2022-09-25T00:55:35.353Z,8.00
2022-09-25T00:58:07.329Z,8.60
2022-09-25T01:00:38.409Z,8.23
2022-09-25T01:03:10.004Z,8.20
2022-09-25T01:05:45.461Z,8.53
2022-09-25T01:08:20.504Z,8.27
2022-09-25T01:10:49.240Z,8.70
2022-09-25T01:13:19.335Z,8.50
2022-09-25T01:16:09.948Z,8.60
2022-09-25T01:18:56.094Z,8.03
2022-09-25T01:21:40.585Z,8.47
2022-09-25T01:24:48.824Z,8.17
2022-09-25T01:27:40.842Z,8.30
2022-09-25T01:30:14.943Z,8.03
2022-09-25T01:33:10.102Z,8.70
2022-09-25T01:35:50.110Z,8.27
2022-09-25T01:38:31.641Z,9.33
2022-09-25T01:41:11.286Z,8.20
2022-09-25T01:43:45.408Z,8.00
2022-09-25T01:46:21.781Z,8.17
2022-09-25T01:48:57.432Z,8.27
2022-09-25T01:51:34.066Z,8.27
2022-09-25T01:54:11.815Z,8.37
2022-09-25T01:56:48.747Z,7.93
2022-09-25T01:59:25.173Z,7.53
2022-09-25T02:01:57.902Z,8.00
2022-09-25T02:04:33.462Z,7.73
2022-09-25T02:07:08.500Z,7.77
2022-09-25T02:09:44.373Z,8.53
2022-09-25T02:12:18.936Z,8.33
2022-09-25T02:14:55.240Z,8.50
2022-09-25T02:17:54.264Z,8.10
2022-09-25T02:20:36.449Z,8.27
2022-09-25T02:23:17.430Z,7.77
2022-09-25T02:25:54.345Z,8.03
2022-09-25T02:28:24.104Z,7.90
2022-09-25T02:30:59.318Z,7.67
2022-09-25T02:33:29.766Z,8.13
2022-09-25T02:36:02.818Z,8.50
2022-09-25T02:38:33.770Z,7.83
2022-09-25T02:41:16.802Z,7.30
2022-09-25T02:43:57.593Z,7.90
2022-09-25T02:46:40.220Z,7.30
2022-09-25T02:49:22.638Z,7.80
2022-09-25T02:52:05.890Z,7.83
2022-09-25T02:54:45.658Z,7.93
2022-09-25T02:57:24.947Z,7.90
2022-09-25T02:59:59.711Z,7.67
2022-09-25T03:02:31.111Z,7.90
2022-09-25T03:05:03.487Z,7.20
2022-09-25T03:07:53.520Z,7.40
2022-09-25T03:10:23.249Z,7.13
2022-09-25T03:12:52.043Z,7.93
2022-09-25T03:15:23.924Z,7.20
2022-09-25T03:17:53.333Z,7.53
2022-09-25T03:20:23.511Z,7.70
2022-09-25T03:22:52.074Z,7.30
2022-09-25T03:25:22.537Z,7.50
2022-09-25T03:27:51.183Z,7.57
2022-09-25T03:30:19.879Z,7.70
2022-09-25T03:32:48.563Z,7.90
2022-09-25T03:35:17.334Z,7.60
2022-09-25T03:37:47.400Z,7.30
2022-09-25T03:40:16.488Z,7.53
2022-09-25T03:42:45.073Z,7.70
2022-09-25T03:45:13.815Z,6.93
2022-09-25T03:47:42.396Z,7.27
2022-09-25T03:50:11.527Z,7.20
2022-09-25T03:52:40.178Z,7.97
2022-09-25T03:55:12.067Z,7.43
2022-09-25T03:57:41.687Z,7.00
2022-09-25T04:00:11.705Z,6.93
2022-09-25T04:02:43.114Z,6.93
2022-09-25T04:05:12.180Z,6.87
2022-09-25T04:07:41.300Z,7.20
2022-09-25T04:10:12.086Z,6.90
2022-09-25T04:12:43.624Z,7.23
2022-09-25T04:15:12.680Z,7.50
2022-09-25T04:17:41.373Z,7.70
2022-09-25T04:20:11.032Z,7.27
2022-09-25T04:22:39.645Z,7.00
2022-09-25T04:25:10.695Z,7.73
2022-09-25T04:27:39.857Z,7.47
2022-09-25T04:30:10.891Z,6.67
2022-09-25T04:33:11.250Z,7.00
2022-09-25T04:35:40.399Z,6.77
2022-09-25T04:38:09.825Z,6.70
2022-09-25T04:40:39.876Z,6.40
2022-09-25T04:43:08.903Z,7.17
2022-09-25T04:45:38.097Z,6.97
2022-09-25T04:48:07.449Z,7.10
2022-09-25T04:50:37.805Z,7.00
2022-09-25T04:53:07.092Z,7.07
2022-09-25T04:55:35.732Z,6.93
2022-09-25T04:58:05.841Z,6.80
2022-09-25T05:00:34.485Z,7.30
2022-09-25T05:03:05.005Z,7.20
2022-09-25T05:05:34.070Z,6.63
2022-09-25T05:08:05.001Z,6.87
2022-09-25T05:10:35.675Z,7.00
2022-09-25T05:13:07.005Z,6.90
2022-09-25T05:15:36.465Z,7.00
2022-09-25T05:18:08.552Z,7.20
2022-09-25T05:20:37.926Z,6.90
2022-09-25T05:23:07.199Z,7.00
2022-09-25T05:25:36.295Z,7.10
2022-09-25T05:28:06.948Z,7.27
2022-09-25T05:30:38.850Z,8.00
2022-09-25T05:33:07.881Z,6.60
2022-09-25T05:35:36.880Z,6.90
2022-09-25T05:38:06.810Z,6.53
2022-09-25T05:40:35.659Z,6.83
2022-09-25T05:43:06.387Z,6.87
2022-09-25T05:45:36.132Z,7.00
2022-09-25T05:48:07.659Z,6.70
2022-09-25T05:50:37.389Z,7.00
2022-09-25T05:53:07.360Z,7.40
2022-09-25T05:55:36.302Z,7.07
2022-09-25T05:58:08.476Z,7.83
2022-09-25T06:00:37.282Z,6.70
2022-09-25T06:03:09.029Z,7.20
2022-09-25T06:05:40.928Z,7.63
2022-09-25T06:08:12.943Z,7.20
2022-09-25T06:10:42.497Z,7.10
2022-09-25T06:13:12.562Z,6.90
2022-09-25T06:15:42.307Z,6.73
2022-09-25T06:18:11.294Z,6.87
2022-09-25T06:20:40.246Z,7.27
2022-09-25T06:23:09.931Z,6.77
2022-09-25T06:25:39.105Z,6.60
2022-09-25T06:28:08.438Z,6.70
2022-09-25T06:30:40.568Z,6.60
2022-09-25T06:33:13.151Z,6.40
2022-09-25T06:35:44.735Z,6.47
2022-09-25T06:38:48.212Z,6.13
2022-09-25T06:41:27.203Z,6.50
2022-09-25T06:43:56.048Z,6.67
2022-09-25T06:46:26.284Z,6.80
2022-09-25T06:48:57.371Z,7.00
2022-09-25T06:51:28.949Z,7.20
2022-09-25T06:53:57.892Z,6.83
2022-09-25T06:56:27.667Z,7.03
2022-09-25T06:58:56.699Z,7.87
2022-09-25T07:01:34.341Z,7.60
2022-09-25T07:04:04.256Z,6.90
2022-09-25T07:06:34.709Z,7.33
2022-09-25T07:09:29.855Z,6.80
2022-09-25T07:11:59.027Z,7.43
2022-09-25T07:14:28.137Z,7.20
2022-09-25T07:16:59.187Z,7.23
2022-09-25T07:19:28.016Z,6.97
2022-09-25T07:21:57.319Z,7.70
2022-09-25T07:24:29.342Z,8.20
2022-09-25T07:27:03.939Z,7.43
2022-09-25T07:29:36.043Z,8.07
2022-09-25T07:32:06.562Z,9.60
2022-09-25T07:34:37.896Z,7.93
2022-09-25T07:37:07.921Z,7.90
2022-09-25T07:39:37.980Z,8.73
2022-09-25T07:42:09.182Z,9.27
2022-09-25T07:45:12.821Z,9.27
2022-09-25T07:47:43.312Z,7.23
2022-09-25T07:50:15.526Z,6.90
2022-09-25T07:52:44.812Z,7.00
2022-09-25T07:55:13.458Z,6.83
2022-09-25T07:57:44.008Z,7.13
2022-09-25T08:00:14.344Z,7.17
2022-09-25T08:02:46.558Z,7.53
2022-09-25T08:05:15.841Z,7.20
2022-09-25T08:07:45.043Z,7.10
2022-09-25T08:10:14.173Z,7.40
2022-09-25T08:12:43.414Z,7.37
2022-09-25T08:15:13.846Z,8.03
2022-09-25T08:17:43.147Z,6.70
2022-09-25T08:20:13.415Z,7.33
2022-09-25T08:22:42.797Z,7.13
2022-09-25T08:25:12.490Z,8.30
2022-09-25T08:27:44.274Z,7.57
2022-09-25T08:30:17.769Z,7.47
2022-09-25T08:32:46.814Z,6.70
2022-09-25T08:35:17.084Z,6.20
2022-09-25T08:37:49.125Z,6.33
2022-09-25T08:40:22.597Z,6.90
2022-09-25T08:42:56.170Z,6.63
2022-09-25T08:45:48.355Z,6.67
2022-09-25T08:48:49.367Z,6.20
2022-09-25T08:51:21.076Z,6.60
2022-09-25T08:53:50.030Z,7.70
2022-09-25T08:56:19.224Z,7.07
2022-09-25T08:58:58.190Z,7.20
2022-09-25T09:01:30.280Z,7.33
2022-09-25T09:04:11.111Z,7.27
2022-09-25T09:06:49.700Z,7.27
2022-09-25T09:09:31.164Z,6.70
2022-09-25T09:12:08.533Z,7.83
2022-09-25T09:14:46.365Z,8.33
2022-09-25T09:17:24.281Z,7.37
2022-09-25T09:20:00.549Z,6.83
2022-09-25T09:22:42.184Z,6.50
2022-09-25T09:25:29.313Z,6.27
2022-09-25T09:28:34.799Z,6.10
2022-09-25T09:31:18.698Z,5.33
2022-09-25T09:34:04.539Z,5.60
2022-09-25T09:36:49.932Z,6.70
2022-09-25T09:39:34.129Z,6.20
2022-09-25T09:42:15.709Z,6.80
2022-09-25T09:45:08.632Z,6.10
2022-09-25T09:47:52.007Z,6.07
2022-09-25T09:50:43.340Z,7.10
2022-09-25T09:53:32.289Z,4.97
2022-09-25T09:56:14.904Z,4.67
2022-09-25T09:58:51.865Z,5.47
2022-09-25T10:01:40.987Z,6.43
2022-09-25T10:04:16.060Z,5.33
2022-09-25T10:06:55.055Z,5.40
2022-09-25T10:09:26.045Z,5.70
2022-09-25T10:12:03.224Z,5.83
2022-09-25T10:14:41.019Z,6.60
2022-09-25T10:17:12.881Z,5.32
2022-09-25T10:19:51.609Z,5.50
2022-09-25T10:22:27.228Z,5.25
2022-09-25T10:25:02.348Z,5.13
2022-09-25T10:27:36.980Z,5.82
2022-09-25T10:30:25.640Z,4.88
2022-09-25T10:33:02.337Z,5.40
2022-09-25T10:35:44.017Z,5.65
2022-09-25T10:38:42.107Z,5.38
2022-09-25T10:41:14.813Z,4.55
2022-09-25T10:43:58.390Z,4.32
2022-09-25T10:46:50.860Z,4.60
2022-09-25T10:49:39.836Z,3.97
2022-09-25T10:52:11.282Z,2.97
2022-09-25T10:54:45.276Z,3.80
2022-09-25T10:57:34.311Z,2.80
2022-09-25T11:00:21.343Z,2.70
2022-09-25T11:02:56.562Z,2.92
2022-09-25T11:05:31.506Z,2.65
2022-09-25T11:08:08.055Z,2.42
2022-09-25T11:10:49.377Z,1.90
2022-09-25T11:13:26.186Z,2.20
2022-09-25T11:16:02.763Z,2.55
2022-09-25T11:18:45.299Z,2.70
2022-09-25T11:21:26.075Z,2.65
2022-09-25T11:24:18.742Z,2.67
2022-09-25T11:26:55.926Z,2.50
2022-09-25T11:29:44.796Z,2.47
2022-09-25T11:32:28.030Z,2.65
2022-09-25T11:35:34.830Z,2.83
2022-09-25T11:38:43.713Z,4.22
2022-09-25T11:41:23.567Z,5.10
2022-09-25T11:44:27.735Z,3.80
2022-09-25T11:47:10.002Z,3.63
2022-09-25T11:49:43.211Z,5.15
2022-09-25T11:52:33.366Z,5.35
2022-09-25T11:55:50.676Z,5.93
2022-09-25T11:58:44.994Z,4.57
2022-09-25T12:01:31.184Z,4.78
2022-09-25T12:04:27.794Z,4.20
2022-09-25T12:07:36.006Z,4.85
2022-09-25T12:10:39.721Z,4.53
2022-09-25T12:13:23.343Z,3.53
2022-09-25T12:16:09.084Z,3.88
2022-09-25T12:19:05.976Z,4.15
2022-09-25T12:21:43.754Z,3.95
2022-09-25T12:25:36.965Z,3.65
2022-09-25T12:28:28.735Z,4.30
2022-09-25T12:31:33.501Z,3.55
2022-09-25T12:34:27.007Z,4.18
2022-09-25T12:37:26.790Z,4.85
2022-09-25T12:40:03.545Z,4.65
2022-09-25T12:42:49.117Z,3.70
2022-09-25T12:45:51.568Z,3.50
2022-09-25T12:48:35.005Z,3.75
2022-09-25T12:51:22.261Z,3.58
2022-09-25T12:54:00.486Z,4.20
2022-09-25T12:56:39.226Z,4.60
2022-09-25T12:59:17.645Z,4.20
2022-09-25T13:01:59.043Z,4.28
2022-09-25T13:05:00.509Z,3.63
2022-09-25T13:07:44.263Z,3.53
2022-09-25T13:10:35.025Z,3.13
2022-09-25T13:13:13.127Z,3.50
2022-09-25T13:15:44.976Z,3.27
2022-09-25T13:18:20.000Z,3.85
2022-09-25T13:20:55.399Z,3.10
2022-09-25T13:23:37.179Z,4.07
2022-09-25T13:26:15.017Z,3.33
2022-09-25T13:28:57.800Z,3.15
2022-09-25T13:31:29.942Z,3.33
2022-09-25T13:34:12.497Z,3.43
2022-09-25T13:36:48.342Z,3.20
2022-09-25T13:39:44.563Z,3.60
2022-09-25T13:42:24.868Z,3.40
2022-09-25T13:45:33.539Z,2.97
2022-09-25T13:48:12.675Z,3.10
2022-09-25T13:50:46.257Z,3.17
2022-09-25T13:53:22.929Z,3.30
2022-09-25T13:56:29.983Z,3.37
2022-09-25T13:59:26.528Z,3.70
2022-09-25T14:02:48.133Z,3.60
2022-09-25T14:05:21.718Z,3.40
2022-09-25T14:07:56.882Z,3.55
2022-09-25T14:10:27.508Z,3.33
2022-09-25T14:12:56.736Z,3.60
2022-09-25T14:15:33.102Z,4.05
2022-09-25T14:18:06.116Z,3.10
2022-09-25T14:20:41.337Z,3.28
2022-09-25T14:23:24.285Z,3.35
2022-09-25T14:26:00.497Z,2.92
2022-09-25T14:28:31.538Z,3.13
2022-09-25T14:31:31.180Z,3.30
2022-09-25T14:34:30.495Z,3.85
2022-09-25T14:37:29.386Z,3.53
2022-09-25T14:40:14.261Z,3.70
2022-09-25T14:43:16.660Z,3.90
2022-09-25T14:45:59.893Z,3.78
2022-09-25T14:48:37.950Z,3.93
2022-09-25T14:51:12.319Z,3.90
2022-09-25T14:53:50.593Z,4.30
2022-09-25T14:56:22.876Z,4.30
2022-09-25T14:58:57.893Z,4.50
2022-09-25T15:01:30.545Z,4.00
2022-09-25T15:04:03.693Z,4.30
2022-09-25T15:06:35.930Z,4.10
2022-09-25T15:09:30.439Z,4.17
2022-09-25T15:12:00.915Z,4.50
2022-09-25T15:14:29.550Z,4.60
2022-09-25T15:17:15.666Z,6.83
2022-09-25T15:19:47.400Z,5.13
2022-09-25T15:22:26.151Z,4.40
2022-09-25T15:25:00.640Z,4.57
2022-09-25T15:27:32.748Z,5.20
2022-09-25T15:30:03.355Z,4.53
2022-09-25T15:32:39.983Z,4.67
2022-09-25T15:35:23.621Z,5.00
2022-09-25T15:38:06.735Z,6.43
2022-09-25T15:40:36.567Z,5.60
2022-09-25T15:43:14.609Z,6.00
2022-09-25T15:45:50.530Z,6.27
2022-09-25T15:48:33.120Z,6.33
2022-09-25T15:51:16.713Z,8.50
2022-09-25T15:53:54.102Z,13.23
2022-09-25T15:56:26.944Z,11.77
2022-09-25T15:59:03.365Z,9.33
2022-09-25T16:01:52.702Z,7.10
2022-09-25T16:04:54.822Z,7.67
2022-09-25T16:07:31.034Z,7.90
2022-09-25T16:10:04.511Z,7.37
2022-09-25T16:12:49.348Z,8.13
2022-09-25T16:15:51.866Z,6.77
2022-09-25T16:18:51.142Z,7.27
2022-09-25T16:21:35.054Z,6.77
2022-09-25T16:24:11.380Z,6.93
2022-09-25T16:26:46.256Z,6.90
2022-09-25T16:29:25.065Z,7.60
2022-09-25T16:32:04.855Z,6.50
2022-09-25T16:34:40.942Z,8.33
2022-09-25T16:37:28.745Z,8.27
2022-09-25T16:40:51.727Z,9.73
2022-09-25T16:43:28.210Z,8.53
2022-09-25T16:46:03.557Z,7.67
2022-09-25T16:48:41.046Z,7.63
2022-09-25T16:51:21.644Z,7.03
2022-09-25T16:53:51.972Z,8.47
2022-09-25T16:56:24.505Z,8.10
2022-09-25T16:58:58.732Z,7.77
2022-09-25T17:01:29.524Z,7.10
2022-09-25T17:04:00.561Z,7.73
2022-09-25T17:06:31.650Z,9.27
2022-09-25T17:09:01.179Z,16.17
2022-09-25T17:11:30.356Z,18.00
2022-09-25T17:14:01.231Z,31.90
2022-09-25T17:16:31.096Z,19.07
2022-09-25T17:19:01.794Z,14.33
2022-09-25T17:21:35.073Z,11.30
2022-09-25T17:24:04.543Z,11.07
2022-09-25T17:26:33.747Z,9.37
2022-09-25T17:29:02.607Z,9.10
2022-09-25T17:31:31.981Z,7.80
2022-09-25T17:34:02.430Z,8.57
2022-09-25T17:36:31.124Z,8.00
2022-09-25T17:38:59.773Z,7.80
2022-09-25T17:41:33.746Z,8.77
2022-09-25T17:44:03.913Z,9.30
2022-09-25T17:46:36.467Z,12.73
2022-09-25T17:49:07.199Z,7.77
2022-09-25T17:51:37.829Z,14.30
2022-09-25T17:54:07.990Z,10.63
2022-09-25T17:56:39.373Z,10.00
2022-09-25T17:59:09.279Z,19.20
2022-09-25T18:01:39.863Z,18.03
2022-09-25T18:04:22.373Z,17.47
2022-09-25T18:06:57.500Z,17.77
2022-09-25T18:09:28.122Z,16.20
2022-09-25T18:11:57.517Z,11.07
2022-09-25T18:14:27.031Z,14.13
2022-09-25T18:16:56.152Z,14.67
2022-09-25T18:19:43.898Z,14.93
2022-09-25T18:22:19.530Z,14.33
2022-09-25T18:24:53.047Z,13.77
2022-09-25T18:27:23.664Z,12.53
2022-09-25T18:29:53.620Z,12.13
2022-09-25T18:32:26.397Z,10.90
2022-09-25T18:34:58.292Z,11.97
2022-09-25T18:37:27.830Z,11.60
2022-09-25T18:39:59.255Z,12.80
2022-09-25T18:42:29.020Z,13.43
2022-09-25T18:45:00.365Z,11.90
2022-09-25T18:47:29.746Z,11.40
2022-09-25T18:50:01.944Z,11.03
2022-09-25T18:52:32.043Z,11.47
2022-09-25T18:55:05.023Z,12.00
2022-09-25T18:57:39.801Z,12.67
2022-09-25T19:00:20.419Z,12.60
2022-09-25T19:02:50.950Z,11.60
2022-09-25T19:05:21.689Z,11.47
2022-09-25T19:08:11.193Z,12.33
2022-09-25T19:11:14.108Z,12.97
2022-09-25T19:13:49.636Z,14.03
2022-09-25T19:16:24.328Z,13.50
2022-09-25T19:18:56.554Z,13.53
2022-09-25T19:21:44.235Z,10.70
2022-09-25T19:24:18.490Z,9.83
2022-09-25T19:26:48.287Z,9.77
2022-09-25T19:29:17.353Z,9.27
2022-09-25T19:31:46.010Z,10.13
2022-09-25T19:34:16.844Z,9.63
2022-09-25T19:36:47.530Z,11.43
2022-09-25T19:39:16.659Z,9.80
2022-09-25T19:41:46.776Z,10.03
2022-09-25T19:44:17.980Z,9.97
2022-09-25T19:46:48.714Z,10.30
2022-09-25T19:49:20.550Z,10.40
2022-09-25T19:51:50.991Z,10.03
2022-09-25T19:54:20.554Z,10.20
2022-09-25T19:56:49.910Z,10.53
2022-09-25T19:59:19.052Z,10.97
2022-09-25T20:01:48.041Z,11.30
2022-09-25T20:04:18.943Z,11.57
2022-09-25T20:06:50.049Z,12.93
2022-09-25T20:09:19.316Z,13.67
2022-09-25T20:11:48.784Z,13.70
2022-09-25T20:14:20.666Z,12.90
2022-09-25T20:16:50.736Z,11.80
2022-09-25T20:19:20.304Z,11.77
2022-09-25T20:21:53.008Z,12.30
2022-09-25T20:24:22.958Z,11.83
2022-09-25T20:26:51.597Z,11.43
2022-09-25T20:29:20.321Z,12.10
2022-09-25T20:31:49.132Z,11.93
2022-09-25T20:34:20.165Z,11.70
2022-09-25T20:36:50.542Z,11.13
2022-09-25T20:39:21.525Z,10.53
2022-09-25T20:41:50.765Z,10.47
2022-09-25T20:44:19.527Z,10.90
2022-09-25T20:46:48.165Z,10.20
2022-09-25T20:49:20.138Z,11.07
2022-09-25T20:51:50.276Z,10.90
2022-09-25T20:54:19.166Z,10.40
2022-09-25T20:56:47.957Z,10.00
2022-09-25T20:59:17.967Z,9.83
2022-09-25T21:02:31.087Z,10.07
2022-09-25T21:05:00.543Z,10.20
2022-09-25T21:07:30.728Z,9.50
2022-09-25T21:09:59.334Z,9.53
2022-09-25T21:12:29.455Z,10.17
2022-09-25T21:14:58.253Z,9.60
2022-09-25T21:17:26.991Z,9.20
2022-09-25T21:19:55.825Z,9.00
2022-09-25T21:22:24.680Z,9.13
2022-09-25T21:24:56.209Z,9.23
2022-09-25T21:27:25.565Z,9.13
2022-09-25T21:29:54.769Z,9.37
2022-09-25T21:32:24.622Z,9.33
2022-09-25T21:34:55.525Z,9.03
2022-09-25T21:37:24.392Z,8.63
2022-09-25T21:40:10.417Z,9.50
2022-09-25T21:42:39.206Z,8.87
2022-09-25T21:45:10.658Z,8.70
2022-09-25T21:47:39.727Z,8.90
2022-09-25T21:50:10.410Z,9.20
2022-09-25T21:52:41.322Z,9.00
2022-09-25T21:55:12.332Z,8.40
2022-09-25T21:57:40.957Z,8.57
2022-09-25T22:00:11.390Z,8.30
2022-09-25T22:02:40.502Z,8.80
2022-09-25T22:05:11.432Z,7.67
2022-09-25T22:07:40.542Z,8.13
2022-09-25T22:10:12.729Z,8.20
2022-09-25T22:12:41.327Z,8.47
2022-09-25T22:15:12.960Z,8.37
2022-09-25T22:17:41.705Z,7.70
2022-09-25T22:20:11.545Z,7.83
2022-09-25T22:22:40.366Z,7.80
2022-09-25T22:25:11.573Z,7.83
2022-09-25T22:27:42.224Z,8.60
2022-09-25T22:30:13.757Z,8.27
2022-09-25T22:32:43.415Z,8.17
2022-09-25T22:35:13.464Z,8.20
2022-09-25T22:37:42.256Z,8.07
2022-09-25T22:40:14.588Z,8.00
2022-09-25T22:42:45.454Z,7.73
2022-09-25T22:45:14.475Z,8.20
2022-09-25T22:47:43.123Z,7.67
2022-09-25T22:50:12.378Z,8.07
2022-09-25T22:52:40.999Z,7.60
2022-09-25T22:55:11.510Z,8.00
2022-09-25T22:57:40.294Z,8.07
2022-09-25T23:00:11.272Z,7.80
2022-09-25T23:02:39.866Z,8.07
2022-09-25T23:05:09.804Z,8.07
2022-09-25T23:07:38.590Z,7.80
2022-09-25T23:10:08.886Z,7.70
2022-09-25T23:12:38.885Z,8.07
2022-09-25T23:15:09.125Z,8.10
2022-09-25T23:17:38.617Z,7.77
2022-09-25T23:20:09.124Z,8.60
2022-09-25T23:22:37.902Z,8.37
2022-09-25T23:25:07.486Z,8.27
2022-09-25T23:27:36.153Z,7.87
2022-09-25T23:30:07.051Z,7.83
2022-09-25T23:32:35.672Z,8.00
2022-09-25T23:35:04.858Z,8.43
2022-09-25T23:37:33.534Z,7.23
2022-09-25T23:40:02.772Z,7.23
2022-09-25T23:42:31.784Z,7.50
2022-09-25T23:45:00.540Z,7.03
2022-09-25T23:47:31.129Z,7.60
2022-09-25T23:50:04.409Z,7.23
2022-09-25T23:52:33.579Z,7.20
2022-09-25T23:55:02.295Z,8.60
2022-09-25T23:57:31.073Z,9.07
2022-09-25T23:59:59.681Z,9.63
